createdAt,value
2022-08-17T00:07:53.563Z,0
2022-08-17T00:17:30.658Z,0
2022-08-17T00:27:07.502Z,0
2022-08-17T00:36:44.633Z,0
2022-08-17T00:46:22.094Z,0
2022-08-17T00:55:58.987Z,0
2022-08-17T01:15:13.091Z,0
2022-08-17T01:24:50.158Z,0
2022-08-17T01:34:32.780Z,0
2022-08-17T01:44:03.434Z,0
2022-08-17T01:53:40.134Z,0
2022-08-17T02:12:54.202Z,0
2022-08-17T02:22:31.025Z,0
2022-08-17T02:32:07.883Z,0
2022-08-17T02:41:44.773Z,0
2022-08-17T03:00:59.075Z,0
2022-08-17T03:10:36.287Z,0
2022-08-17T03:20:13.798Z,0
2022-08-17T03:29:51.380Z,0
2022-08-17T03:49:05.991Z,0
2022-08-17T03:58:43.193Z,5.63
2022-08-17T04:08:20.298Z,11.25
2022-08-17T04:17:57.278Z,22.5
2022-08-17T04:27:35.083Z,39.38
2022-08-17T04:37:12.869Z,50.63
2022-08-17T04:46:50.661Z,61.88
2022-08-17T04:56:28.287Z,78.75
2022-08-17T05:06:05.887Z,84.38
2022-08-17T05:15:44.790Z,90
2022-08-17T05:25:20.797Z,50.63
2022-08-17T05:34:58.706Z,112.5
2022-08-17T05:54:13.569Z,140.63
2022-08-17T06:13:29.572Z,168.75
2022-08-17T06:23:07.522Z,174.38
2022-08-17T06:32:45.868Z,180
2022-08-17T06:42:54.207Z,196.88
2022-08-17T06:52:01.781Z,230.63
2022-08-17T07:01:40.146Z,253.13
2022-08-17T07:11:18.171Z,202.5
2022-08-17T07:20:55.771Z,196.88
2022-08-17T07:30:37.066Z,196.88
2022-08-17T07:40:15.693Z,196.88
2022-08-17T07:49:49.277Z,191.25
2022-08-17T07:59:28.727Z,213.75
2022-08-17T08:09:06.170Z,208.13
2022-08-17T08:18:55.156Z,219.38
2022-08-17T08:28:23.126Z,213.75
2022-08-17T08:38:01.131Z,225
2022-08-17T08:47:40.082Z,230.63
2022-08-17T08:57:25.344Z,236.25
2022-08-17T09:06:58.199Z,264.38
2022-08-17T09:16:37.330Z,275.63
2022-08-17T09:26:17.352Z,331.88
2022-08-17T09:45:34.381Z,1996.88
2022-08-17T09:55:32.102Z,3515.63
2022-08-17T10:05:20.013Z,2587.5
2022-08-17T10:15:05.091Z,3307.5
2022-08-17T10:25:02.321Z,3948.75
2022-08-17T10:34:27.459Z,3442.5
2022-08-17T10:44:28.582Z,3386.25
2022-08-17T10:53:47.072Z,2970
2022-08-17T11:13:00.815Z,3183.75
2022-08-17T11:32:21.889Z,3909.38
2022-08-17T11:41:58.167Z,3510
2022-08-17T11:51:40.951Z,2767.5
2022-08-17T12:01:19.487Z,3532.5
2022-08-17T12:11:00.967Z,1636.88
2022-08-17T12:20:33.524Z,2801.25
2022-08-17T12:30:21.915Z,3498.75
2022-08-17T12:40:05.941Z,3695.63
2022-08-17T12:49:46.277Z,4145.63
2022-08-17T12:59:29.594Z,3785.63
2022-08-17T13:09:03.514Z,3965.63
2022-08-17T13:46:56.942Z,196.88
2022-08-17T13:56:31.601Z,241.88
2022-08-17T14:06:08.693Z,585
2022-08-17T14:15:54.039Z,461.25
2022-08-17T14:25:25.167Z,641.25
2022-08-17T14:35:15.833Z,2261.25
2022-08-17T14:44:53.198Z,1321.88
2022-08-17T14:54:43.775Z,568.13
2022-08-17T15:04:04.617Z,298.13
2022-08-17T15:13:52.145Z,331.88
2022-08-17T15:23:19.816Z,916.88
2022-08-17T15:32:58.054Z,427.5
2022-08-17T15:42:33.753Z,298.13
2022-08-17T15:52:08.471Z,219.38
2022-08-17T16:11:21.834Z,163.13
2022-08-17T16:20:59.106Z,168.75
2022-08-17T16:30:36.820Z,253.13
2022-08-17T16:40:14.695Z,202.5
2022-08-17T16:49:50.686Z,157.5
2022-08-17T17:09:04.642Z,135
2022-08-17T17:18:42.009Z,112.5
2022-08-17T17:28:19.098Z,73.13
2022-08-17T17:47:32.872Z,33.75
2022-08-17T17:57:10.108Z,22.5
2022-08-17T18:06:47.115Z,22.5
2022-08-17T18:16:24.535Z,16.88
2022-08-17T18:26:01.121Z,11.25
2022-08-17T18:35:38.063Z,5.63
2022-08-17T18:45:14.867Z,0
2022-08-17T18:54:51.957Z,0
2022-08-17T19:04:28.479Z,0
2022-08-17T19:14:04.886Z,0
2022-08-17T19:23:41.967Z,0
2022-08-17T19:33:18.729Z,0
2022-08-17T19:42:55.686Z,0
2022-08-17T19:52:32.444Z,0
2022-08-17T20:02:09.155Z,0
2022-08-17T20:11:45.471Z,0
2022-08-17T20:21:22.494Z,0
2022-08-17T20:30:59.511Z,0
2022-08-17T20:40:36.870Z,0
2022-08-17T20:50:14.080Z,0
2022-08-17T20:59:51.051Z,0
2022-08-17T21:09:28.150Z,0
2022-08-17T21:19:05.732Z,0
2022-08-17T21:29:00.199Z,0
2022-08-17T21:38:19.841Z,0
2022-08-17T21:47:57.011Z,0
2022-08-17T22:07:10.863Z,0
2022-08-17T22:16:47.986Z,0
2022-08-17T22:36:02.314Z,0
2022-08-17T22:45:39.581Z,0
2022-08-17T22:55:16.282Z,0
2022-08-17T23:04:53.441Z,0
2022-08-17T23:14:30.333Z,0
2022-08-17T23:24:07.686Z,0
2022-08-17T23:33:44.834Z,0
2022-08-17T23:43:24.936Z,0
2022-08-17T23:52:59.442Z,0
